createdAt,value
2022-12-31T00:02:22.707Z,0.28
2022-12-31T00:04:49.536Z,0.30
2022-12-31T00:07:16.307Z,0.40
2022-12-31T00:09:43.159Z,0.35
2022-12-31T00:12:10.009Z,0.25
2022-12-31T00:14:36.930Z,0.40
2022-12-31T00:17:03.729Z,0.30
2022-12-31T00:19:30.611Z,0.38
2022-12-31T00:21:57.372Z,0.30
2022-12-31T00:24:24.396Z,0.30
2022-12-31T00:26:51.137Z,0.30
2022-12-31T00:29:17.891Z,0.40
2022-12-31T00:31:44.651Z,0.30
2022-12-31T00:34:11.405Z,0.20
2022-12-31T00:36:39.483Z,0.28
2022-12-31T00:39:08.235Z,0.50
2022-12-31T00:41:35.653Z,0.30
2022-12-31T00:44:02.830Z,0.30
2022-12-31T00:46:29.828Z,0.30
2022-12-31T00:48:56.679Z,0.30
2022-12-31T00:51:27.218Z,0.20
2022-12-31T00:53:55.369Z,0.32
2022-12-31T00:56:26.462Z,0.25
2022-12-31T00:58:53.439Z,0.38
2022-12-31T01:01:24.995Z,0.25
2022-12-31T01:03:56.161Z,0.30
2022-12-31T01:06:22.977Z,0.20
2022-12-31T01:08:51.027Z,0.30
2022-12-31T01:11:18.964Z,0.30
2022-12-31T01:13:48.493Z,0.30
2022-12-31T01:16:16.247Z,0.20
2022-12-31T01:18:43.248Z,0.20
2022-12-31T01:21:12.591Z,0.38
2022-12-31T01:23:40.084Z,0.38
2022-12-31T01:26:10.400Z,0.28
2022-12-31T01:28:37.181Z,0.30
2022-12-31T01:31:07.313Z,0.30
2022-12-31T01:33:35.166Z,0.30
2022-12-31T01:36:08.777Z,0.30
2022-12-31T01:38:35.803Z,0.98
2022-12-31T01:41:03.505Z,0.30
2022-12-31T01:43:55.282Z,0.40
2022-12-31T01:46:52.514Z,0.40
2022-12-31T01:49:44.262Z,0.30
2022-12-31T01:52:42.661Z,0.20
2022-12-31T01:55:19.551Z,0.30
2022-12-31T01:57:50.195Z,0.40
2022-12-31T02:00:17.749Z,0.40
2022-12-31T02:02:44.998Z,0.25
2022-12-31T02:05:22.942Z,0.40
2022-12-31T02:07:50.053Z,0.40
2022-12-31T02:10:16.932Z,0.40
2022-12-31T02:12:43.920Z,0.50
2022-12-31T02:15:11.338Z,0.40
2022-12-31T02:17:59.025Z,0.40
2022-12-31T02:21:05.004Z,0.40
2022-12-31T02:24:21.549Z,0.30
2022-12-31T02:27:13.494Z,0.28
2022-12-31T02:30:13.451Z,0.40
2022-12-31T02:35:45.223Z,0.40
2022-12-31T02:38:20.016Z,0.40
2022-12-31T02:40:47.732Z,0.50
2022-12-31T02:43:14.797Z,0.35
2022-12-31T02:45:48.289Z,0.40
2022-12-31T02:48:37.584Z,0.57
2022-12-31T02:51:28.130Z,0.50
2022-12-31T02:54:13.691Z,0.50
2022-12-31T02:57:41.113Z,0.40
2022-12-31T03:00:32.476Z,0.40
2022-12-31T03:03:01.116Z,0.50
2022-12-31T03:05:31.082Z,0.50
2022-12-31T03:10:24.632Z,0.40
2022-12-31T03:12:51.763Z,0.40
2022-12-31T03:15:29.088Z,0.50
2022-12-31T03:18:12.620Z,0.50
2022-12-31T03:21:08.013Z,0.40
2022-12-31T03:23:50.023Z,0.50
2022-12-31T03:26:16.806Z,0.43
2022-12-31T03:28:47.601Z,0.50
2022-12-31T03:31:16.187Z,0.50
2022-12-31T03:33:43.085Z,0.73
2022-12-31T03:36:14.023Z,0.40
2022-12-31T03:38:41.433Z,0.35
2022-12-31T03:41:10.939Z,0.40
2022-12-31T03:43:37.890Z,0.40
2022-12-31T03:46:04.820Z,0.35
2022-12-31T03:48:31.629Z,0.40
2022-12-31T03:50:58.400Z,0.70
2022-12-31T03:53:25.189Z,0.45
2022-12-31T03:55:55.346Z,0.50
2022-12-31T03:58:25.297Z,0.57
2022-12-31T04:03:18.921Z,0.40
2022-12-31T04:05:52.425Z,0.40
2022-12-31T04:08:19.212Z,0.50
2022-12-31T04:10:46.041Z,0.30
2022-12-31T04:13:12.804Z,0.43
2022-12-31T04:15:39.554Z,0.60
2022-12-31T04:18:06.374Z,0.52
2022-12-31T04:20:33.215Z,0.32
2022-12-31T04:23:00.015Z,0.50
2022-12-31T04:25:26.864Z,0.55
2022-12-31T04:27:53.616Z,0.35
2022-12-31T04:30:20.364Z,0.40
2022-12-31T04:32:47.152Z,0.43
2022-12-31T04:35:14.011Z,0.40
2022-12-31T04:37:40.778Z,0.47
2022-12-31T04:40:09.121Z,0.50
2022-12-31T04:42:36.307Z,0.40
2022-12-31T04:45:04.540Z,0.50
2022-12-31T04:47:31.386Z,0.50
2022-12-31T04:49:58.299Z,0.40
2022-12-31T04:52:25.061Z,0.40
2022-12-31T04:54:51.841Z,0.40
2022-12-31T04:57:18.643Z,0.45
2022-12-31T04:59:45.447Z,0.50
2022-12-31T05:02:12.409Z,0.40
2022-12-31T05:04:39.284Z,0.50
2022-12-31T05:07:06.171Z,0.50
2022-12-31T05:09:32.987Z,0.50
2022-12-31T05:12:00.011Z,0.40
2022-12-31T05:14:26.815Z,0.50
2022-12-31T05:16:53.806Z,0.20
2022-12-31T05:19:20.759Z,0.30
2022-12-31T05:22:07.566Z,0.45
2022-12-31T05:24:34.359Z,0.50
2022-12-31T05:27:01.162Z,0.47
2022-12-31T05:29:27.953Z,0.40
2022-12-31T05:31:54.730Z,0.32
2022-12-31T05:34:21.510Z,0.30
2022-12-31T05:36:48.283Z,0.35
2022-12-31T05:39:15.091Z,0.50
2022-12-31T05:41:41.881Z,0.30
2022-12-31T05:44:10.417Z,0.40
2022-12-31T05:46:37.191Z,0.40
2022-12-31T05:49:03.952Z,0.50
2022-12-31T05:51:30.719Z,0.57
2022-12-31T05:53:57.497Z,0.30
2022-12-31T05:56:24.273Z,0.30
2022-12-31T05:58:51.173Z,0.60
2022-12-31T06:01:17.987Z,0.30
2022-12-31T06:03:45.407Z,0.50
2022-12-31T06:06:12.291Z,0.60
2022-12-31T06:08:39.089Z,0.40
2022-12-31T06:11:06.004Z,0.40
2022-12-31T06:13:32.780Z,0.50
2022-12-31T06:16:08.915Z,0.50
2022-12-31T06:18:35.733Z,0.40
2022-12-31T06:21:04.050Z,0.52
2022-12-31T06:23:30.856Z,0.30
2022-12-31T06:26:01.780Z,0.38
2022-12-31T06:28:28.563Z,0.50
2022-12-31T06:31:01.262Z,0.40
2022-12-31T06:33:28.353Z,0.70
2022-12-31T06:36:01.182Z,0.60
2022-12-31T06:38:30.849Z,0.52
2022-12-31T06:40:57.613Z,0.50
2022-12-31T06:43:24.541Z,0.50
2022-12-31T06:45:51.312Z,0.47
2022-12-31T06:48:18.635Z,0.50
2022-12-31T06:50:46.226Z,0.57
2022-12-31T06:53:13.018Z,0.43
2022-12-31T06:55:40.185Z,0.50
2022-12-31T06:58:12.109Z,0.40
2022-12-31T07:00:48.659Z,0.60
2022-12-31T07:03:38.598Z,0.40
2022-12-31T07:08:45.322Z,0.50
2022-12-31T07:11:27.160Z,0.63
2022-12-31T07:14:06.970Z,0.40
2022-12-31T07:16:55.286Z,0.38
2022-12-31T07:19:57.683Z,0.47
2022-12-31T07:22:25.211Z,0.55
2022-12-31T07:24:52.300Z,0.47
2022-12-31T07:27:44.482Z,0.60
2022-12-31T07:30:14.248Z,0.50
2022-12-31T07:32:43.893Z,0.60
2022-12-31T07:35:35.931Z,0.73
2022-12-31T07:38:24.760Z,0.50
2022-12-31T07:41:09.271Z,0.40
2022-12-31T07:44:11.785Z,0.52
2022-12-31T07:47:00.162Z,0.50
2022-12-31T07:49:29.823Z,0.40
2022-12-31T07:51:56.977Z,0.52
2022-12-31T07:54:23.886Z,0.50
2022-12-31T07:56:51.585Z,0.75
2022-12-31T08:00:01.192Z,0.63
2022-12-31T08:02:40.079Z,0.70
2022-12-31T08:05:14.526Z,0.45
2022-12-31T08:08:18.710Z,0.50
2022-12-31T08:11:14.392Z,0.60
2022-12-31T08:13:42.525Z,0.68
2022-12-31T08:16:13.827Z,0.60
2022-12-31T08:18:41.134Z,0.70
2022-12-31T08:21:49.110Z,0.50
2022-12-31T08:24:39.606Z,0.70
2022-12-31T08:27:24.336Z,0.68
2022-12-31T08:30:15.951Z,0.75
2022-12-31T08:33:03.370Z,0.65
2022-12-31T08:36:06.617Z,0.65
2022-12-31T08:39:03.794Z,0.60
2022-12-31T08:41:44.403Z,0.50
2022-12-31T08:44:35.661Z,0.43
2022-12-31T08:47:25.573Z,0.60
2022-12-31T08:49:53.540Z,0.65
2022-12-31T08:52:25.372Z,0.70
2022-12-31T08:54:53.008Z,0.50
2022-12-31T08:57:35.195Z,0.80
2022-12-31T09:00:11.506Z,0.90
2022-12-31T09:02:51.787Z,0.90
2022-12-31T09:05:56.972Z,0.60
2022-12-31T09:09:06.135Z,0.60
2022-12-31T09:12:05.632Z,0.55
2022-12-31T09:14:43.575Z,0.50
2022-12-31T09:17:49.629Z,0.70
2022-12-31T09:20:44.362Z,0.60
2022-12-31T09:23:13.061Z,0.50
2022-12-31T09:25:53.409Z,0.43
2022-12-31T09:28:43.241Z,0.60
2022-12-31T09:31:53.066Z,0.43
2022-12-31T09:37:07.284Z,0.47
2022-12-31T09:39:44.136Z,0.60
2022-12-31T09:42:44.122Z,0.55
2022-12-31T09:48:59.260Z,0.60
2022-12-31T09:51:55.685Z,0.47
2022-12-31T09:54:22.378Z,0.60
2022-12-31T09:57:32.277Z,0.65
2022-12-31T10:02:59.728Z,0.50
2022-12-31T10:05:51.426Z,0.57
2022-12-31T10:08:51.960Z,0.60
2022-12-31T10:11:45.211Z,0.60
2022-12-31T10:15:11.462Z,0.60
2022-12-31T10:18:03.842Z,0.70
2022-12-31T10:21:11.374Z,0.60
2022-12-31T10:23:54.581Z,1.45
2022-12-31T10:26:53.248Z,1.48
2022-12-31T10:29:42.870Z,1.57
2022-12-31T10:32:41.844Z,0.60
2022-12-31T10:35:36.365Z,3.08
2022-12-31T10:38:43.674Z,2.20
2022-12-31T10:41:18.910Z,1.40
2022-12-31T10:44:16.560Z,1.40
2022-12-31T10:47:20.100Z,0.52
2022-12-31T10:50:34.535Z,0.60
2022-12-31T10:53:41.611Z,0.60
2022-12-31T10:56:48.189Z,0.50
2022-12-31T10:59:37.364Z,0.57
2022-12-31T11:02:32.122Z,0.55
2022-12-31T11:05:44.989Z,0.60
2022-12-31T11:08:33.172Z,0.50
2022-12-31T11:12:09.192Z,0.40
2022-12-31T11:15:13.362Z,0.50
2022-12-31T11:18:21.027Z,0.50
2022-12-31T11:21:36.299Z,0.55
2022-12-31T11:25:00.299Z,0.60
2022-12-31T11:28:01.128Z,0.30
2022-12-31T11:31:12.938Z,0.50
2022-12-31T11:34:19.034Z,0.40
2022-12-31T11:37:43.907Z,0.40
2022-12-31T11:41:06.567Z,0.50
2022-12-31T11:43:46.642Z,0.50
2022-12-31T11:46:48.860Z,0.47
2022-12-31T11:49:33.757Z,0.50
2022-12-31T11:52:21.157Z,0.50
2022-12-31T11:55:14.225Z,0.47
2022-12-31T11:57:46.766Z,0.40
2022-12-31T12:00:25.469Z,0.40
2022-12-31T12:02:58.097Z,0.50
2022-12-31T12:05:26.203Z,0.40
2022-12-31T12:07:54.292Z,0.40
2022-12-31T12:10:36.472Z,0.50
2022-12-31T12:13:23.737Z,0.50
2022-12-31T12:15:55.429Z,0.35
2022-12-31T12:19:11.051Z,0.40
2022-12-31T12:21:49.132Z,0.38
2022-12-31T12:24:29.051Z,0.50
2022-12-31T12:26:57.370Z,0.50
2022-12-31T12:29:29.986Z,0.50
2022-12-31T12:32:05.306Z,0.50
2022-12-31T12:34:45.870Z,0.60
2022-12-31T12:37:26.320Z,0.47
2022-12-31T12:40:18.354Z,0.45
2022-12-31T12:42:51.189Z,0.40
2022-12-31T12:45:20.929Z,0.40
2022-12-31T12:47:56.397Z,0.50
2022-12-31T12:50:26.808Z,0.70
2022-12-31T12:53:25.696Z,0.50
2022-12-31T12:56:33.744Z,0.50
2022-12-31T12:59:30.301Z,0.35
2022-12-31T13:02:17.129Z,0.50
2022-12-31T13:04:49.795Z,0.85
2022-12-31T13:07:48.438Z,0.50
2022-12-31T13:10:29.323Z,0.60
2022-12-31T13:13:24.281Z,0.50
2022-12-31T13:16:37.724Z,0.40
2022-12-31T13:19:42.014Z,0.43
2022-12-31T13:22:20.525Z,0.50
2022-12-31T13:25:22.501Z,0.52
2022-12-31T13:27:52.530Z,0.60
2022-12-31T13:30:35.439Z,0.38
2022-12-31T13:33:24.613Z,0.50
2022-12-31T13:36:00.175Z,0.95
2022-12-31T13:38:39.270Z,0.60
2022-12-31T13:41:42.282Z,0.70
2022-12-31T13:44:16.722Z,0.50
2022-12-31T13:46:58.617Z,0.40
2022-12-31T13:49:51.511Z,0.50
2022-12-31T13:52:32.704Z,5.55
2022-12-31T13:55:41.851Z,1.13
2022-12-31T13:58:40.909Z,0.80
2022-12-31T14:01:15.306Z,0.90
2022-12-31T14:04:33.574Z,0.63
2022-12-31T14:07:18.001Z,0.50
2022-12-31T14:09:46.499Z,0.50
2022-12-31T14:12:30.867Z,0.50
2022-12-31T14:15:28.907Z,0.40
2022-12-31T14:18:11.983Z,0.52
2022-12-31T14:20:58.810Z,0.60
2022-12-31T14:23:53.204Z,0.50
2022-12-31T14:26:28.025Z,0.40
2022-12-31T14:29:10.458Z,0.65
2022-12-31T14:31:49.395Z,0.47
2022-12-31T14:35:01.291Z,0.80
2022-12-31T14:37:47.070Z,0.90
2022-12-31T14:41:01.502Z,0.70
2022-12-31T14:43:52.426Z,0.90
2022-12-31T14:46:59.910Z,0.80
2022-12-31T14:50:05.300Z,0.77
2022-12-31T14:52:35.604Z,1.00
2022-12-31T14:55:28.349Z,1.40
2022-12-31T15:00:55.667Z,1.40
2022-12-31T15:03:32.570Z,1.08
2022-12-31T15:06:22.516Z,1.00
2022-12-31T15:09:17.012Z,1.25
2022-12-31T15:12:16.517Z,1.67
2022-12-31T15:15:23.037Z,1.33
2022-12-31T15:17:59.321Z,1.10
2022-12-31T15:20:51.980Z,1.30
2022-12-31T15:23:37.427Z,1.33
2022-12-31T15:26:05.662Z,1.15
2022-12-31T15:28:38.772Z,1.02
2022-12-31T15:31:17.527Z,1.17
2022-12-31T15:34:05.025Z,1.23
2022-12-31T15:36:38.861Z,1.50
2022-12-31T15:39:11.604Z,1.20
2022-12-31T15:42:10.200Z,1.02
2022-12-31T15:44:50.037Z,0.90
2022-12-31T15:47:29.234Z,0.77
2022-12-31T15:49:59.868Z,0.70
2022-12-31T15:52:47.884Z,0.98
2022-12-31T15:55:42.865Z,1.02
2022-12-31T15:58:18.656Z,1.35
2022-12-31T16:01:13.712Z,3.42
2022-12-31T16:04:17.393Z,3.53
2022-12-31T16:06:50.497Z,1.98
2022-12-31T16:09:27.741Z,2.42
2022-12-31T16:11:56.588Z,3.20
2022-12-31T16:14:29.097Z,2.47
2022-12-31T16:16:59.671Z,2.65
2022-12-31T16:19:48.732Z,2.20
2022-12-31T16:22:29.547Z,2.15
2022-12-31T16:25:29.795Z,2.03
2022-12-31T16:27:49.645Z,2.22
2022-12-31T16:30:29.423Z,1.90
2022-12-31T16:33:02.642Z,1.90
2022-12-31T16:35:36.483Z,1.98
2022-12-31T16:38:34.831Z,2.13
2022-12-31T16:41:01.461Z,2.40
2022-12-31T16:43:38.095Z,1.67
2022-12-31T16:46:31.323Z,2.45
2022-12-31T16:49:20.294Z,3.38
2022-12-31T16:51:47.582Z,3.40
2022-12-31T16:54:24.525Z,4.15
2022-12-31T16:56:52.374Z,2.80
2022-12-31T16:59:26.431Z,2.20
2022-12-31T17:01:59.617Z,2.90
2022-12-31T17:04:26.859Z,2.30
2022-12-31T17:06:53.632Z,2.33
2022-12-31T17:09:22.889Z,1.88
2022-12-31T17:11:56.694Z,2.08
2022-12-31T17:14:27.173Z,1.70
2022-12-31T17:17:03.210Z,1.50
2022-12-31T17:19:47.707Z,1.23
2022-12-31T17:22:36.486Z,1.25
2022-12-31T17:25:28.569Z,1.20
2022-12-31T17:28:07.523Z,1.27
2022-12-31T17:30:34.916Z,1.50
2022-12-31T17:33:21.867Z,1.50
2022-12-31T17:35:55.185Z,1.63
2022-12-31T17:38:21.904Z,1.60
2022-12-31T17:40:55.124Z,2.00
2022-12-31T17:43:23.888Z,1.70
2022-12-31T17:45:52.742Z,1.63
2022-12-31T17:48:20.489Z,1.83
2022-12-31T17:50:52.922Z,1.90
2022-12-31T17:53:20.244Z,1.90
2022-12-31T17:55:54.838Z,2.72
2022-12-31T17:58:30.036Z,2.70
2022-12-31T18:00:58.232Z,2.35
2022-12-31T18:03:25.237Z,3.13
2022-12-31T18:05:52.580Z,3.15
2022-12-31T18:08:19.382Z,3.40
2022-12-31T18:10:46.386Z,4.28
2022-12-31T18:13:19.505Z,7.75
2022-12-31T18:15:46.644Z,13.85
2022-12-31T18:18:28.810Z,9.55
2022-12-31T18:21:01.371Z,12.57
2022-12-31T18:23:51.340Z,10.60
2022-12-31T18:28:49.480Z,24.15
2022-12-31T18:31:25.052Z,29.83
2022-12-31T18:33:54.598Z,17.30
2022-12-31T18:36:23.284Z,16.15
2022-12-31T18:38:50.256Z,25.83
2022-12-31T18:41:19.716Z,17.05
2022-12-31T18:43:47.093Z,8.00
2022-12-31T18:46:17.024Z,9.65
2022-12-31T18:51:23.105Z,8.68
2022-12-31T18:53:53.340Z,7.57
2022-12-31T18:56:21.920Z,5.70
2022-12-31T18:58:48.817Z,5.53
2022-12-31T19:01:34.876Z,7.10
2022-12-31T19:04:06.682Z,4.75
2022-12-31T19:06:34.138Z,6.55
2022-12-31T19:09:01.287Z,10.20
2022-12-31T19:11:28.303Z,6.47
2022-12-31T19:13:55.185Z,4.95
2022-12-31T19:16:22.027Z,6.07
2022-12-31T19:18:49.451Z,4.80
2022-12-31T19:21:20.981Z,5.78
2022-12-31T19:23:48.281Z,7.18
2022-12-31T19:26:18.168Z,7.85
2022-12-31T19:28:46.345Z,5.75
2022-12-31T19:31:14.282Z,7.97
2022-12-31T19:33:41.411Z,5.70
2022-12-31T19:36:15.651Z,5.72
2022-12-31T19:38:42.970Z,5.88
2022-12-31T19:41:18.967Z,5.78
2022-12-31T19:43:47.416Z,6.38
2022-12-31T19:46:17.287Z,6.80
2022-12-31T19:48:45.640Z,5.53
2022-12-31T19:51:18.382Z,4.85
2022-12-31T19:53:47.168Z,5.18
2022-12-31T19:56:18.985Z,4.30
2022-12-31T19:58:46.289Z,3.85
2022-12-31T20:01:21.043Z,4.10
2022-12-31T20:03:48.350Z,4.03
2022-12-31T20:06:16.336Z,3.83
2022-12-31T20:08:43.303Z,3.95
2022-12-31T20:11:17.881Z,3.90
2022-12-31T20:13:46.293Z,3.25
2022-12-31T20:16:18.770Z,4.18
2022-12-31T20:18:47.464Z,4.10
2022-12-31T20:21:18.972Z,4.05
2022-12-31T20:23:46.773Z,4.60
2022-12-31T20:26:13.714Z,4.50
2022-12-31T20:28:40.566Z,5.50
2022-12-31T20:31:14.038Z,5.40
2022-12-31T20:33:41.342Z,6.00
2022-12-31T20:36:11.857Z,37.22
2022-12-31T20:38:38.868Z,13.10
2022-12-31T20:41:10.240Z,7.70
2022-12-31T20:43:37.641Z,5.80
2022-12-31T20:46:15.424Z,4.50
2022-12-31T20:48:44.760Z,4.07
2022-12-31T20:51:13.270Z,4.80
2022-12-31T20:53:40.262Z,4.78
2022-12-31T20:56:08.599Z,5.45
2022-12-31T20:58:36.089Z,5.00
2022-12-31T21:01:07.120Z,4.75
2022-12-31T21:04:04.137Z,5.07
2022-12-31T21:06:23.866Z,7.05
2022-12-31T21:08:51.175Z,6.60
2022-12-31T21:11:36.517Z,6.45
2022-12-31T21:14:03.328Z,6.85
2022-12-31T21:16:30.217Z,7.45
2022-12-31T21:18:58.068Z,7.38
2022-12-31T21:21:25.057Z,6.28
2022-12-31T21:23:51.819Z,5.40
2022-12-31T21:26:18.820Z,5.20
2022-12-31T21:28:45.996Z,32.17
2022-12-31T21:31:14.389Z,10.45
2022-12-31T21:33:45.542Z,16.75
2022-12-31T21:36:12.657Z,9.27
2022-12-31T21:38:39.722Z,6.88
2022-12-31T21:41:08.725Z,7.72
2022-12-31T21:43:35.715Z,7.57
2022-12-31T21:46:07.235Z,8.38
2022-12-31T21:48:34.349Z,11.73
2022-12-31T21:51:14.770Z,13.75
2022-12-31T21:53:41.629Z,8.65
2022-12-31T21:56:10.973Z,8.13
2022-12-31T21:58:43.478Z,13.88
2022-12-31T22:01:39.377Z,10.77
2022-12-31T22:04:10.001Z,8.05
2022-12-31T22:06:43.973Z,7.38
2022-12-31T22:09:10.727Z,5.78
2022-12-31T22:11:37.808Z,5.68
2022-12-31T22:14:04.595Z,7.32
2022-12-31T22:16:31.449Z,6.70
2022-12-31T22:18:58.280Z,5.63
2022-12-31T22:21:26.457Z,7.43
2022-12-31T22:23:56.212Z,22.73
2022-12-31T22:26:27.723Z,214.40
2022-12-31T22:28:58.989Z,33.25
2022-12-31T22:31:32.276Z,18.00
2022-12-31T22:33:59.592Z,11.32
2022-12-31T22:36:26.415Z,10.95
2022-12-31T22:38:57.918Z,33.70
2022-12-31T22:41:26.735Z,20.85
2022-12-31T22:44:02.663Z,39.92
2022-12-31T22:46:30.813Z,22.45
2022-12-31T22:48:59.665Z,9.48
2022-12-31T22:51:56.758Z,79.75
2022-12-31T22:54:14.786Z,29.05
2022-12-31T22:56:41.684Z,14.75
2022-12-31T22:59:09.154Z,13.10
2022-12-31T23:01:36.897Z,10.15
2022-12-31T23:04:04.206Z,96.65
2022-12-31T23:06:31.221Z,128.95
2022-12-31T23:09:16.982Z,186.60
2022-12-31T23:11:43.767Z,353.45
2022-12-31T23:14:35.925Z,165.15
2022-12-31T23:17:29.745Z,283.48
2022-12-31T23:20:18.308Z,109.35
2022-12-31T23:23:04.888Z,50.00
2022-12-31T23:25:33.596Z,35.88
2022-12-31T23:28:00.400Z,39.95
2022-12-31T23:30:27.653Z,38.83
2022-12-31T23:32:54.446Z,38.35
2022-12-31T23:35:21.589Z,44.95
2022-12-31T23:37:48.375Z,45.03
2022-12-31T23:40:20.909Z,49.55
2022-12-31T23:42:49.783Z,54.00
2022-12-31T23:45:16.613Z,77.13
2022-12-31T23:47:43.435Z,59.30
2022-12-31T23:50:10.345Z,58.42
2022-12-31T23:52:37.090Z,57.60
2022-12-31T23:55:04.184Z,57.95
2022-12-31T23:57:31.214Z,59.58
2022-12-31T23:59:57.989Z,54.97
